Reagan, Tennessee
Current Conditions -  °F | °C
As of 10:15 AM on Thursday 18 Dec 2014 (Local Time) from KPVE Reporting Station
Overcast Overcast  
Wind Chill: 36°   Ceiling: 1000
Heat Index: 36°   Visibility: 10mi
Dew Point: 34°   Wind: 3mph
Humidity: 93%   Direction: 20°NNE
Pressure: 30.25"   Gusts: NA
Location:  35.52°N, 88.34°W
Report Text: KPVE 181615Z AUTO 02003KT 10SM BKN010 OVC050 02/01 A3025 RMK
Loading
Personal Weather Stations






























Interactive Weather Map New forecast layout! Learn more

10-Day Weather Forecast

Advertisements
Track Severe Weather on mobile